createdAt,value
2023-05-11T00:02:16.389Z,99815.03
2023-05-11T00:04:43.657Z,99805.47
2023-05-11T00:07:10.976Z,99798.91
2023-05-11T00:09:38.702Z,99798.09
2023-05-11T00:12:05.729Z,99794.53
2023-05-11T00:14:32.674Z,99800.81
2023-05-11T00:16:59.593Z,99815.56
2023-05-11T00:19:26.580Z,99801.91
2023-05-11T00:21:53.635Z,99797.00
2023-05-11T00:24:20.367Z,99803.81
2023-05-11T00:26:47.260Z,99807.91
2023-05-11T00:29:14.028Z,99811.78
2023-05-11T00:31:41.109Z,99811.78
2023-05-11T00:34:07.986Z,99799.16
2023-05-11T00:36:34.959Z,99802.44
2023-05-11T00:39:02.150Z,99789.31
2023-05-11T00:41:29.208Z,99804.06
2023-05-11T00:43:56.459Z,99799.44
2023-05-11T00:46:23.360Z,99801.59
2023-05-11T00:48:50.542Z,99805.16
2023-05-11T00:51:18.254Z,99801.31
2023-05-11T00:53:45.920Z,99803.50
2023-05-11T00:56:13.148Z,99788.75
2023-05-11T00:58:40.182Z,99797.22
2023-05-11T01:01:07.276Z,99800.75
2023-05-11T01:03:35.767Z,99800.75
2023-05-11T01:06:09.130Z,99803.47
2023-05-11T01:08:51.122Z,99805.38
2023-05-11T01:11:26.789Z,99810.31
2023-05-11T01:14:00.321Z,99807.84
2023-05-11T01:16:30.500Z,99797.47
2023-05-11T01:19:24.297Z,99803.50
2023-05-11T01:21:51.681Z,99805.66
2023-05-11T01:24:30.975Z,99804.56
2023-05-11T01:27:15.813Z,99797.19
2023-05-11T01:29:58.503Z,99802.91
2023-05-11T01:32:29.171Z,99803.97
2023-05-11T01:35:20.398Z,99802.59
2023-05-11T01:37:50.649Z,99802.56
2023-05-11T01:40:21.760Z,99809.66
2023-05-11T01:42:58.748Z,99790.25
2023-05-11T01:45:28.679Z,99801.19
2023-05-11T01:47:56.752Z,99802.56
2023-05-11T01:50:26.064Z,99810.19
2023-05-11T01:52:54.113Z,99807.75
2023-05-11T01:55:23.719Z,99811.56
2023-05-11T01:57:53.586Z,99810.69
2023-05-11T02:00:21.825Z,99799.44
2023-05-11T02:02:50.003Z,99803.00
2023-05-11T02:05:25.022Z,99791.78
2023-05-11T02:07:54.441Z,99798.03
2023-05-11T02:10:25.302Z,99805.63
2023-05-11T02:12:54.366Z,99802.09
2023-05-11T02:15:25.004Z,99798.25
2023-05-11T02:17:53.504Z,99801.56
2023-05-11T02:20:21.094Z,99805.66
2023-05-11T02:22:49.264Z,99797.72
2023-05-11T02:25:17.199Z,99796.91
2023-05-11T02:27:44.900Z,99814.91
2023-05-11T02:30:13.144Z,99806.97
2023-05-11T02:32:48.543Z,99796.59
2023-05-11T02:35:28.964Z,99808.06
2023-05-11T02:37:59.266Z,99820.09
2023-05-11T02:40:31.305Z,99815.72
2023-05-11T02:43:22.696Z,99798.19
2023-05-11T02:46:02.632Z,99730.31
2023-05-11T02:48:36.153Z,99821.88
2023-05-11T02:51:10.145Z,99827.00
2023-05-11T02:53:46.131Z,99820.44
2023-05-11T02:56:13.798Z,99819.25
2023-05-11T02:58:45.652Z,99816.56
2023-05-11T03:01:28.091Z,99819.25
2023-05-11T03:04:00.605Z,99823.56
2023-05-11T03:06:33.445Z,99825.78
2023-05-11T03:09:03.485Z,99828.75
2023-05-11T03:11:33.684Z,99836.72
2023-05-11T03:14:02.337Z,99838.66
2023-05-11T03:16:34.639Z,99836.50
2023-05-11T03:19:03.339Z,99833.50
2023-05-11T03:21:32.257Z,99826.97
2023-05-11T03:24:02.047Z,99825.94
2023-05-11T03:26:35.478Z,99833.28
2023-05-11T03:29:03.972Z,99831.94
2023-05-11T03:31:37.370Z,99834.66
2023-05-11T03:34:04.483Z,99830.91
2023-05-11T03:36:40.990Z,99827.94
2023-05-11T03:39:11.718Z,99814.53
2023-05-11T03:41:41.110Z,99823.91
2023-05-11T03:44:12.740Z,99837.59
2023-05-11T03:46:46.529Z,99827.81
2023-05-11T03:49:16.613Z,99836.31
2023-05-11T03:51:45.356Z,99832.53
2023-05-11T03:54:12.867Z,99837.44
2023-05-11T03:56:43.380Z,99846.47
2023-05-11T03:59:16.585Z,99850.84
2023-05-11T04:01:44.149Z,99852.81
2023-05-11T04:04:12.101Z,99847.03
2023-05-11T04:06:39.940Z,99851.16
2023-05-11T04:09:11.907Z,99844.69
2023-05-11T04:11:39.146Z,99848.03
2023-05-11T04:14:06.657Z,99852.16
2023-05-11T04:16:34.375Z,99859.53
2023-05-11T04:19:02.878Z,99853.81
2023-05-11T04:21:30.785Z,99863.38
2023-05-11T04:23:58.438Z,99861.47
2023-05-11T04:26:26.272Z,99855.75
2023-05-11T04:28:53.294Z,99846.72
2023-05-11T04:31:20.654Z,99843.72
2023-05-11T04:33:48.415Z,99848.88
2023-05-11T04:36:18.255Z,99850.53
2023-05-11T04:38:45.714Z,99861.41
2023-05-11T04:41:13.857Z,99853.19
2023-05-11T04:43:41.781Z,99852.63
2023-05-11T04:46:09.598Z,99860.78
2023-05-11T04:48:36.786Z,99847.91
2023-05-11T04:51:07.864Z,99857.66
2023-05-11T04:53:40.656Z,99864.38
2023-05-11T04:56:07.612Z,99862.63
2023-05-11T04:58:34.609Z,99859.50
2023-05-11T05:01:01.663Z,99875.41
2023-05-11T05:03:28.682Z,99854.06
2023-05-11T05:05:55.717Z,99857.06
2023-05-11T05:08:22.709Z,99851.41
2023-05-11T05:10:50.940Z,99858.75
2023-05-11T05:13:18.260Z,99858.31
2023-05-11T05:15:45.364Z,99854.91
2023-05-11T05:18:12.433Z,99865.28
2023-05-11T05:20:39.796Z,99858.25
2023-05-11T05:23:06.850Z,99856.97
2023-05-11T05:25:34.264Z,99866.66
2023-05-11T05:28:01.037Z,99874.88
2023-05-11T05:30:28.089Z,99864.38
2023-05-11T05:32:55.320Z,99866.34
2023-05-11T05:35:22.723Z,99872.56
2023-05-11T05:37:49.809Z,99850.16
2023-05-11T05:40:17.474Z,99875.34
2023-05-11T05:42:48.091Z,99867.06
2023-05-11T05:45:19.659Z,99856.66
2023-05-11T05:47:49.136Z,99863.09
2023-05-11T05:50:18.091Z,99867.06
2023-05-11T05:52:46.255Z,99868.50
2023-05-11T05:55:13.873Z,99860.22
2023-05-11T05:57:41.265Z,99854.81
2023-05-11T06:00:10.449Z,99846.84
2023-05-11T06:02:40.389Z,99855.69
2023-05-11T06:05:13.367Z,99864.72
2023-05-11T06:07:40.293Z,99871.88
2023-05-11T06:10:07.581Z,99858.03
2023-05-11T06:12:34.447Z,99850.97
2023-05-11T06:15:02.093Z,99870.53
2023-05-11T06:17:31.978Z,99880.94
2023-05-11T06:19:59.046Z,99887.03
2023-05-11T06:22:28.572Z,99874.63
2023-05-11T06:24:55.725Z,99878.16
2023-05-11T06:27:22.872Z,99868.81
2023-05-11T06:29:54.065Z,99875.25
2023-05-11T06:32:21.548Z,99863.84
2023-05-11T06:34:48.837Z,99881.19
2023-05-11T06:37:20.569Z,99878.41
2023-05-11T06:39:49.975Z,99881.47
2023-05-11T06:42:16.954Z,99865.25
2023-05-11T06:44:43.804Z,99870.78
2023-05-11T06:47:11.523Z,99861.53
2023-05-11T06:49:39.319Z,99868.09
2023-05-11T06:52:06.665Z,99859.78
2023-05-11T06:54:34.204Z,99879.69
2023-05-11T06:57:02.135Z,99873.34
2023-05-11T06:59:29.036Z,99866.66
2023-05-11T07:01:56.350Z,99868.31
2023-05-11T07:04:23.324Z,99870.09
2023-05-11T07:06:50.245Z,99872.84
2023-05-11T07:09:17.245Z,99872.84
2023-05-11T07:11:44.127Z,99859.84
2023-05-11T07:14:11.066Z,99872.19
2023-05-11T07:16:38.528Z,99874.47
2023-05-11T07:19:06.176Z,99878.56
2023-05-11T07:21:34.191Z,99868.97
2023-05-11T07:24:01.145Z,99888.47
2023-05-11T07:26:28.293Z,99884.91
2023-05-11T07:28:55.172Z,99882.78
2023-05-11T07:31:22.696Z,99886.53
2023-05-11T07:33:49.707Z,99884.72
2023-05-11T07:36:16.733Z,99880.84
2023-05-11T07:38:43.650Z,99873.50
2023-05-11T07:41:12.512Z,99874.16
2023-05-11T07:43:39.950Z,99882.88
2023-05-11T07:46:07.449Z,99875.81
2023-05-11T07:48:34.430Z,99880.47
2023-05-11T07:51:01.686Z,99877.03
2023-05-11T07:53:28.581Z,99868.94
2023-05-11T07:55:55.664Z,99880.25
2023-05-11T07:58:23.045Z,99880.69
2023-05-11T08:00:50.053Z,99881.91
2023-05-11T08:03:17.094Z,99882.94
2023-05-11T08:05:43.968Z,99882.56
2023-05-11T08:08:10.881Z,99882.50
2023-05-11T08:10:37.926Z,99866.00
2023-05-11T08:13:04.712Z,99868.78
2023-05-11T08:15:31.788Z,99871.59
2023-05-11T08:17:58.830Z,99876.63
2023-05-11T08:20:26.677Z,99877.72
2023-05-11T08:22:53.659Z,99878.69
2023-05-11T08:25:20.825Z,99880.63
2023-05-11T08:27:48.054Z,99865.69
2023-05-11T08:30:15.213Z,99873.28
2023-05-11T08:35:13.355Z,99860.97
2023-05-11T08:37:40.598Z,99859.72
2023-05-11T08:40:08.634Z,99871.63
2023-05-11T08:42:38.549Z,99860.63
2023-05-11T08:45:10.654Z,99874.25
2023-05-11T08:47:38.285Z,99861.91
2023-05-11T08:50:05.462Z,99849.28
2023-05-11T08:52:32.655Z,99844.41
2023-05-11T08:54:59.556Z,99843.50
2023-05-11T08:57:30.534Z,99843.78
2023-05-11T08:59:57.969Z,99851.41
2023-05-11T09:02:26.354Z,99846.38
2023-05-11T09:04:54.495Z,99841.03
2023-05-11T09:07:23.595Z,99831.41
2023-05-11T09:09:50.553Z,99834.22
2023-05-11T09:12:18.062Z,99857.59
2023-05-11T09:14:44.918Z,99835.84
2023-05-11T09:17:12.192Z,99841.84
2023-05-11T09:19:57.805Z,99830.94
2023-05-11T09:22:24.891Z,99835.25
2023-05-11T09:24:52.832Z,99834.47
2023-05-11T09:27:24.941Z,99829.94
2023-05-11T09:29:54.960Z,99830.44
2023-05-11T09:32:22.264Z,99829.84
2023-05-11T09:34:49.328Z,99834.81
2023-05-11T09:37:18.349Z,99827.84
2023-05-11T09:40:14.045Z,99832.38
2023-05-11T09:42:32.586Z,99819.97
2023-05-11T09:44:59.652Z,99817.91
2023-05-11T09:47:27.715Z,99821.72
2023-05-11T09:49:54.670Z,99812.81
2023-05-11T09:52:21.676Z,99809.31
2023-05-11T09:54:51.996Z,99816.75
2023-05-11T09:57:31.204Z,99811.06
2023-05-11T10:00:00.039Z,99816.16
2023-05-11T10:02:29.209Z,99809.09
2023-05-11T10:05:01.476Z,99800.03
2023-05-11T10:07:32.224Z,99806.91
2023-05-11T10:10:07.364Z,99806.19
2023-05-11T10:12:38.246Z,99793.56
2023-05-11T10:15:09.750Z,99803.06
2023-05-11T10:17:37.133Z,99807.22
2023-05-11T10:20:06.253Z,99796.56
2023-05-11T10:22:33.799Z,99791.00
2023-05-11T10:25:02.101Z,99794.13
2023-05-11T10:27:28.960Z,99777.69
2023-05-11T10:29:58.454Z,99778.06
2023-05-11T10:32:25.617Z,99786.88
2023-05-11T10:34:52.852Z,99789.88
2023-05-11T10:37:21.476Z,99784.66
2023-05-11T10:39:50.678Z,99789.50
2023-05-11T10:42:17.641Z,99782.00
2023-05-11T10:45:02.894Z,99776.84
2023-05-11T10:47:48.035Z,99775.56
2023-05-11T10:50:30.275Z,99780.38
2023-05-11T10:53:21.048Z,99773.25
2023-05-11T10:56:14.138Z,99772.81
2023-05-11T10:58:53.137Z,99774.91
2023-05-11T11:01:22.996Z,99771.00
2023-05-11T11:04:02.149Z,99777.13
2023-05-11T11:06:29.768Z,99787.41
2023-05-11T11:09:01.688Z,99787.09
2023-05-11T11:11:51.215Z,99779.06
2023-05-11T11:14:19.284Z,99781.84
2023-05-11T11:17:17.402Z,99782.94
2023-05-11T11:19:44.338Z,99767.88
2023-05-11T11:22:39.213Z,99769.56
2023-05-11T11:25:13.658Z,99765.00
2023-05-11T11:27:40.796Z,99766.06
2023-05-11T11:30:25.754Z,99761.75
2023-05-11T11:32:55.479Z,99760.28
2023-05-11T11:35:41.423Z,99761.94
2023-05-11T11:38:19.454Z,99752.00
2023-05-11T11:40:51.619Z,99758.09
2023-05-11T11:43:23.669Z,99762.78
2023-05-11T11:46:03.152Z,99753.56
2023-05-11T11:48:41.677Z,99746.31
2023-05-11T11:51:11.280Z,99750.50
2023-05-11T11:53:38.527Z,99750.03
2023-05-11T11:56:07.677Z,99754.00
2023-05-11T11:58:40.526Z,99746.84
2023-05-11T12:01:14.020Z,99741.41
2023-05-11T12:03:43.555Z,99738.59
2023-05-11T12:06:12.195Z,99739.22
2023-05-11T12:08:41.316Z,99740.50
2023-05-11T12:11:08.520Z,99736.53
2023-05-11T12:13:36.110Z,99734.94
2023-05-11T12:16:17.133Z,99737.72
2023-05-11T12:18:53.253Z,99708.66
2023-05-11T12:21:31.812Z,99723.78
2023-05-11T12:24:06.053Z,99724.13
2023-05-11T12:26:34.545Z,99726.47
2023-05-11T12:29:15.910Z,99715.31
2023-05-11T12:31:44.554Z,99703.63
2023-05-11T12:34:19.113Z,99706.59
2023-05-11T12:36:47.504Z,99723.38
2023-05-11T12:39:22.780Z,99720.88
2023-05-11T12:41:51.426Z,99710.63
2023-05-11T12:44:20.105Z,99722.56
2023-05-11T12:46:48.497Z,99702.53
2023-05-11T12:49:26.762Z,99697.06
2023-05-11T12:52:00.623Z,99704.69
2023-05-11T12:54:35.841Z,99717.88
2023-05-11T12:57:04.096Z,99702.78
2023-05-11T12:59:34.990Z,99696.78
2023-05-11T13:02:19.136Z,99687.25
2023-05-11T13:04:47.680Z,99688.97
2023-05-11T13:07:23.636Z,99684.94
2023-05-11T13:10:01.188Z,99691.56
2023-05-11T13:12:32.200Z,99701.19
2023-05-11T13:15:14.885Z,99691.31
2023-05-11T13:17:43.331Z,99701.81
2023-05-11T13:20:27.249Z,99690.47
2023-05-11T13:23:08.523Z,99682.41
2023-05-11T13:25:53.185Z,99681.59
2023-05-11T13:28:22.597Z,99686.69
2023-05-11T13:30:51.528Z,99688.53
2023-05-11T13:33:19.076Z,99689.88
2023-05-11T13:35:46.391Z,99687.69
2023-05-11T13:38:13.735Z,99682.03
2023-05-11T13:40:40.775Z,99689.34
2023-05-11T13:43:07.606Z,99692.47
2023-05-11T13:45:36.410Z,99685.84
2023-05-11T13:48:03.684Z,99677.28
2023-05-11T13:50:32.270Z,99682.22
2023-05-11T13:52:59.483Z,99683.56
2023-05-11T13:55:26.425Z,99705.41
2023-05-11T13:57:53.384Z,99684.22
2023-05-11T14:00:20.695Z,99694.09
2023-05-11T14:02:50.495Z,99683.03
2023-05-11T14:05:17.936Z,99672.53
2023-05-11T14:07:48.394Z,99694.56
2023-05-11T14:10:17.178Z,99693.38
2023-05-11T14:12:44.764Z,99676.47
2023-05-11T14:15:11.967Z,99692.28
2023-05-11T14:17:39.401Z,99686.47
2023-05-11T14:20:07.392Z,99696.44
2023-05-11T14:22:34.365Z,99699.75
2023-05-11T14:25:02.010Z,99696.97
2023-05-11T14:27:29.796Z,99703.41
2023-05-11T14:29:56.737Z,99693.75
2023-05-11T14:32:23.866Z,99692.03
2023-05-11T14:34:50.859Z,99711.00
2023-05-11T14:37:17.936Z,99693.28
2023-05-11T14:39:45.097Z,99689.50
2023-05-11T14:42:12.012Z,99688.22
2023-05-11T14:44:39.016Z,99698.66
2023-05-11T14:47:06.393Z,99694.47
2023-05-11T14:49:33.493Z,99692.91
2023-05-11T14:52:00.366Z,99688.53
2023-05-11T14:54:27.451Z,99697.88
2023-05-11T14:56:55.815Z,99694.31
2023-05-11T14:59:24.601Z,99686.44
2023-05-11T15:01:51.699Z,99694.19
2023-05-11T15:04:19.562Z,99702.13
2023-05-11T15:06:46.874Z,99697.16
2023-05-11T15:09:14.107Z,99693.00
2023-05-11T15:11:41.279Z,99702.03
2023-05-11T15:14:08.398Z,99704.16
2023-05-11T15:16:35.385Z,99705.28
2023-05-11T15:19:02.492Z,99695.56
2023-05-11T15:21:29.487Z,99682.97
2023-05-11T15:23:56.615Z,99689.84
2023-05-11T15:26:24.020Z,99692.38
2023-05-11T15:28:51.504Z,99698.75
2023-05-11T15:31:18.609Z,99688.44
2023-05-11T15:33:45.821Z,99697.44
2023-05-11T15:36:14.254Z,99696.03
2023-05-11T15:38:42.551Z,99709.63
2023-05-11T15:41:10.035Z,99705.91
2023-05-11T15:43:37.365Z,99707.19
2023-05-11T15:46:05.180Z,99705.44
2023-05-11T15:48:32.993Z,99714.72
2023-05-11T15:51:01.117Z,99710.66
2023-05-11T15:53:30.279Z,99701.28
2023-05-11T15:55:57.419Z,99696.34
2023-05-11T15:58:24.645Z,99708.50
2023-05-11T16:00:52.088Z,99698.91
2023-05-11T16:03:20.140Z,99713.53
2023-05-11T16:05:47.435Z,99703.25
2023-05-11T16:08:14.847Z,99705.44
2023-05-11T16:10:41.993Z,99718.63
2023-05-11T16:13:10.043Z,99717.38
2023-05-11T16:15:37.478Z,99716.91
2023-05-11T16:18:05.514Z,99712.38
2023-05-11T16:20:32.955Z,99721.88
2023-05-11T16:22:59.830Z,99722.72
2023-05-11T16:25:27.352Z,99702.31
2023-05-11T16:27:55.212Z,99717.81
2023-05-11T16:30:25.454Z,99719.00
2023-05-11T16:32:53.970Z,99711.81
2023-05-11T16:35:21.735Z,99721.31
2023-05-11T16:37:49.276Z,99721.06
2023-05-11T16:40:21.559Z,99735.53
2023-05-11T16:42:49.250Z,99731.19
2023-05-11T16:45:16.809Z,99740.09
2023-05-11T16:47:45.821Z,99746.25
2023-05-11T16:53:52.805Z,99754.75
2023-05-11T16:56:34.270Z,99748.47
2023-05-11T16:59:02.145Z,99756.09
2023-05-11T17:01:30.189Z,99754.69
2023-05-11T17:03:57.316Z,99743.44
2023-05-11T17:06:26.884Z,99752.91
2023-05-11T17:08:55.174Z,99752.94
2023-05-11T17:11:23.548Z,99749.44
2023-05-11T17:13:52.013Z,99757.56
2023-05-11T17:16:20.364Z,99757.75
2023-05-11T17:18:59.028Z,99768.81
2023-05-11T17:21:27.320Z,99770.97
2023-05-11T17:23:55.314Z,99749.19
2023-05-11T17:26:27.274Z,99776.34
2023-05-11T17:28:57.634Z,99771.16
2023-05-11T17:31:28.896Z,99776.53
2023-05-11T17:33:56.910Z,99744.44
2023-05-11T17:36:25.075Z,99769.19
2023-05-11T17:38:54.357Z,99768.69
2023-05-11T17:41:22.791Z,99761.34
2023-05-11T17:43:50.504Z,99770.97
2023-05-11T17:46:19.964Z,99768.03
2023-05-11T17:48:47.769Z,99773.72
2023-05-11T17:51:15.576Z,99782.00
2023-05-11T17:53:43.558Z,99771.91
2023-05-11T17:56:12.564Z,99776.28
2023-05-11T17:58:40.206Z,99766.97
2023-05-11T18:01:09.894Z,99768.09
2023-05-11T18:03:38.855Z,99786.78
2023-05-11T18:06:07.752Z,99789.56
2023-05-11T18:08:37.396Z,99796.81
2023-05-11T18:11:05.571Z,99796.16
2023-05-11T18:13:33.396Z,99812.53
2023-05-11T18:16:01.507Z,99807.34
2023-05-11T18:18:29.303Z,99817.25
2023-05-11T18:20:57.388Z,99813.19
2023-05-11T18:23:25.158Z,99815.13
2023-05-11T18:25:53.101Z,99808.75
2023-05-11T18:28:20.865Z,99807.38
2023-05-11T18:30:48.704Z,99821.97
2023-05-11T18:33:24.320Z,99813.66
2023-05-11T18:37:07.558Z,99831.22
2023-05-11T18:39:35.379Z,99834.78
2023-05-11T18:42:43.431Z,99832.28
2023-05-11T18:45:36.281Z,99831.59
2023-05-11T18:48:05.795Z,99832.91
2023-05-11T18:50:35.871Z,99822.13
2023-05-11T18:53:04.009Z,99840.28
2023-05-11T18:55:45.014Z,99832.44
2023-05-11T18:58:21.309Z,99839.72
2023-05-11T19:00:49.565Z,99843.91
2023-05-11T19:03:19.604Z,99844.19
2023-05-11T19:05:48.991Z,99848.38
2023-05-11T19:08:17.653Z,99846.94
2023-05-11T19:10:46.154Z,99845.13
2023-05-11T19:13:14.215Z,99844.53
2023-05-11T19:15:42.241Z,99849.22
2023-05-11T19:18:10.741Z,99848.38
2023-05-11T19:20:39.716Z,99844.59
2023-05-11T19:23:07.683Z,99839.97
2023-05-11T19:25:35.513Z,99850.69
2023-05-11T19:28:04.127Z,99849.56
2023-05-11T19:31:30.216Z,99862.16
2023-05-11T19:34:02.004Z,99840.31
2023-05-11T19:36:30.522Z,99856.63
2023-05-11T19:38:58.478Z,99856.03
2023-05-11T19:42:38.952Z,99848.88
2023-05-11T19:45:34.087Z,99855.03
2023-05-11T19:48:02.036Z,99849.31
2023-05-11T19:50:41.887Z,99859.00
2023-05-11T19:53:09.611Z,99853.59
2023-05-11T19:55:37.523Z,99852.56
2023-05-11T19:58:05.623Z,99854.81
2023-05-11T20:00:33.679Z,99856.06
2023-05-11T20:03:01.935Z,99852.78
2023-05-11T20:05:30.525Z,99834.75
2023-05-11T20:07:57.888Z,99841.28
2023-05-11T20:10:25.508Z,99839.66
2023-05-11T20:12:53.610Z,99856.69
2023-05-11T20:15:21.871Z,99850.16
2023-05-11T20:17:50.929Z,99853.81
2023-05-11T20:20:19.550Z,99855.56
2023-05-11T20:22:47.529Z,99861.28
2023-05-11T20:25:18.661Z,99852.59
2023-05-11T20:27:47.310Z,99860.13
2023-05-11T20:30:16.204Z,99865.44
2023-05-11T20:35:14.811Z,99860.53
2023-05-11T20:37:42.562Z,99855.44
2023-05-11T20:40:10.935Z,99865.22
2023-05-11T20:42:39.171Z,99848.59
2023-05-11T20:45:08.150Z,99872.25
2023-05-11T20:47:35.946Z,99866.94
2023-05-11T20:50:04.058Z,99853.16
2023-05-11T20:52:32.041Z,99851.81
2023-05-11T20:54:59.719Z,99846.19
2023-05-11T20:57:27.336Z,99853.53
2023-05-11T21:02:24.722Z,99853.13
2023-05-11T21:04:52.672Z,99844.22
2023-05-11T21:07:22.299Z,99846.78
2023-05-11T21:09:50.182Z,99854.53
2023-05-11T21:12:17.727Z,99848.00
2023-05-11T21:14:45.244Z,99852.50
2023-05-11T21:17:12.749Z,99845.75
2023-05-11T21:19:40.692Z,99853.00
2023-05-11T21:22:12.172Z,99849.03
2023-05-11T21:24:59.150Z,99844.72
2023-05-11T21:27:26.984Z,99856.16
2023-05-11T21:30:07.729Z,99849.53
2023-05-11T21:32:34.979Z,99837.19
2023-05-11T21:35:02.954Z,99832.81
2023-05-11T21:37:33.686Z,99845.16
2023-05-11T21:40:00.834Z,99837.38
2023-05-11T21:42:34.152Z,99839.84
2023-05-11T21:45:33.322Z,99846.56
2023-05-11T21:48:01.030Z,99844.63
2023-05-11T21:50:27.969Z,99835.56
2023-05-11T21:52:54.874Z,99839.34
2023-05-11T21:55:23.386Z,99827.09
2023-05-11T21:57:50.202Z,99831.78
2023-05-11T22:00:18.806Z,99820.41
2023-05-11T22:02:46.000Z,99813.50
2023-05-11T22:05:12.923Z,99827.84
2023-05-11T22:07:39.916Z,99820.47
2023-05-11T22:10:07.270Z,99822.41
2023-05-11T22:12:34.199Z,99809.56
2023-05-11T22:15:01.661Z,99816.69
2023-05-11T22:17:28.520Z,99830.16
2023-05-11T22:19:55.518Z,99819.53
2023-05-11T22:22:22.489Z,99809.19
2023-05-11T22:24:49.610Z,99808.09
2023-05-11T22:27:16.581Z,99805.25
2023-05-11T22:29:43.507Z,99806.06
2023-05-11T22:32:10.707Z,99796.50
2023-05-11T22:34:38.051Z,99800.56
2023-05-11T22:37:05.801Z,99800.28
2023-05-11T22:39:33.050Z,99803.63
2023-05-11T22:41:59.913Z,99792.63
2023-05-11T22:44:28.363Z,99798.72
2023-05-11T22:46:56.501Z,99780.91
2023-05-11T22:49:23.718Z,99804.97
2023-05-11T22:51:50.568Z,99808.41
2023-05-11T22:54:17.524Z,99796.66
2023-05-11T22:56:44.447Z,99797.19
2023-05-11T22:59:12.659Z,99802.31
2023-05-11T23:01:39.512Z,99799.03
2023-05-11T23:04:06.336Z,99804.00
2023-05-11T23:06:33.158Z,99795.31
2023-05-11T23:09:00.099Z,99780.44
2023-05-11T23:11:27.180Z,99796.41
2023-05-11T23:13:54.041Z,99789.78
2023-05-11T23:16:21.054Z,99792.72
2023-05-11T23:18:48.149Z,99793.81
2023-05-11T23:21:15.194Z,99800.50
2023-05-11T23:23:42.926Z,99791.28
2023-05-11T23:26:10.529Z,99793.50
2023-05-11T23:28:37.580Z,99789.41
2023-05-11T23:31:04.674Z,99794.66
2023-05-11T23:33:31.683Z,99800.09
2023-05-11T23:35:58.694Z,99790.81
2023-05-11T23:38:26.909Z,99799.47
2023-05-11T23:40:54.172Z,99808.22
2023-05-11T23:43:22.742Z,99804.59
2023-05-11T23:45:49.670Z,99806.91
2023-05-11T23:48:16.644Z,99792.50
2023-05-11T23:50:43.582Z,99801.19
2023-05-11T23:53:10.380Z,99802.25
2023-05-11T23:55:37.424Z,99786.41
2023-05-11T23:58:04.237Z,99793.13
